sensor_id;sensor_type;location;lat;lon;timestamp;P1;durP1;ratioP1;P2;durP2;ratioP2
69404;SDS011;57084;52.046;5.632;2022-12-18T00:00:00;37.5;;;21.4;;
69404;SDS011;57084;52.046;5.632;2022-12-18T00:01:00;37.5;;;21.4;;
69404;SDS011;57084;52.046;5.632;2022-12-18T00:02:00;37.9;;;21.4;;
69404;SDS011;57084;52.046;5.632;2022-12-18T00:03:00;37.9;;;21.4;;
69404;SDS011;57084;52.046;5.632;2022-12-18T00:04:02;37.9;;;21.4;;
69404;SDS011;57084;52.046;5.632;2022-12-18T00:05:00;37.9;;;21.4;;
69404;SDS011;57084;52.046;5.632;2022-12-18T00:06:00;37.9;;;21.4;;
69404;SDS011;57084;52.046;5.632;2022-12-18T00:07:00;32.2;;;21.0;;
69404;SDS011;57084;52.046;5.632;2022-12-18T00:08:00;32.2;;;21.0;;
69404;SDS011;57084;52.046;5.632;2022-12-18T00:09:02;32.2;;;21.0;;
69404;SDS011;57084;52.046;5.632;2022-12-18T00:10:00;32.2;;;21.0;;
69404;SDS011;57084;52.046;5.632;2022-12-18T00:11:03;32.2;;;21.0;;
69404;SDS011;57084;52.046;5.632;2022-12-18T00:12:00;34.7;;;20.7;;
69404;SDS011;57084;52.046;5.632;2022-12-18T00:13:00;34.7;;;20.7;;
69404;SDS011;57084;52.046;5.632;2022-12-18T00:14:00;34.7;;;20.7;;
69404;SDS011;57084;52.046;5.632;2022-12-18T00:15:00;34.7;;;20.7;;
69404;SDS011;57084;52.046;5.632;2022-12-18T00:16:01;34.7;;;20.7;;
69404;SDS011;57084;52.046;5.632;2022-12-18T00:17:00;35.7;;;20.1;;
69404;SDS011;57084;52.046;5.632;2022-12-18T00:18:00;35.7;;;20.1;;
69404;SDS011;57084;52.046;5.632;2022-12-18T00:19:00;35.7;;;20.1;;
69404;SDS011;57084;52.046;5.632;2022-12-18T00:20:00;35.7;;;20.1;;
69404;SDS011;57084;52.046;5.632;2022-12-18T00:21:02;35.7;;;20.1;;
69404;SDS011;57084;52.046;5.632;2022-12-18T00:22:00;36.6;;;20.1;;
69404;SDS011;57084;52.046;5.632;2022-12-18T00:23:00;36.6;;;20.1;;
69404;SDS011;57084;52.046;5.632;2022-12-18T00:24:00;36.6;;;20.1;;
69404;SDS011;57084;52.046;5.632;2022-12-18T00:25:00;36.6;;;20.1;;
69404;SDS011;57084;52.046;5.632;2022-12-18T00:26:01;36.6;;;20.1;;
69404;SDS011;57084;52.046;5.632;2022-12-18T00:27:00;32.7;;;20.0;;
69404;SDS011;57084;52.046;5.632;2022-12-18T00:28:00;32.7;;;20.0;;
69404;SDS011;57084;52.046;5.632;2022-12-18T00:29:02;32.7;;;20.0;;
69404;SDS011;57084;52.046;5.632;2022-12-18T00:30:00;32.7;;;20.0;;
69404;SDS011;57084;52.046;5.632;2022-12-18T00:31:01;32.7;;;20.0;;
69404;SDS011;57084;52.046;5.632;2022-12-18T00:32:00;33.9;;;20.7;;
69404;SDS011;57084;52.046;5.632;2022-12-18T00:33:00;33.9;;;20.7;;
69404;SDS011;57084;52.046;5.632;2022-12-18T00:34:00;33.9;;;20.7;;
69404;SDS011;57084;52.046;5.632;2022-12-18T00:35:00;33.9;;;20.7;;
69404;SDS011;57084;52.046;5.632;2022-12-18T00:36:00;33.9;;;20.7;;
69404;SDS011;57084;52.046;5.632;2022-12-18T00:37:00;32.9;;;19.5;;
69404;SDS011;57084;52.046;5.632;2022-12-18T00:38:00;32.9;;;19.5;;
69404;SDS011;57084;52.046;5.632;2022-12-18T00:39:02;32.9;;;19.5;;
69404;SDS011;57084;52.046;5.632;2022-12-18T00:40:00;32.9;;;19.5;;
69404;SDS011;57084;52.046;5.632;2022-12-18T00:41:00;32.9;;;19.5;;
69404;SDS011;57084;52.046;5.632;2022-12-18T00:42:00;32.9;;;19.5;;
69404;SDS011;57084;52.046;5.632;2022-12-18T00:43:00;37.5;;;23.0;;
69404;SDS011;57084;52.046;5.632;2022-12-18T00:44:00;37.5;;;23.0;;
69404;SDS011;57084;52.046;5.632;2022-12-18T00:45:00;37.5;;;23.0;;
69404;SDS011;57084;52.046;5.632;2022-12-18T00:46:00;37.5;;;23.0;;
69404;SDS011;57084;52.046;5.632;2022-12-18T00:47:00;37.5;;;23.0;;
69404;SDS011;57084;52.046;5.632;2022-12-18T00:48:00;30.4;;;18.6;;
69404;SDS011;57084;52.046;5.632;2022-12-18T00:49:00;30.4;;;18.6;;
69404;SDS011;57084;52.046;5.632;2022-12-18T00:50:00;30.4;;;18.6;;
69404;SDS011;57084;52.046;5.632;2022-12-18T00:51:00;30.4;;;18.6;;
69404;SDS011;57084;52.046;5.632;2022-12-18T00:52:00;30.4;;;18.6;;
69404;SDS011;57084;52.046;5.632;2022-12-18T00:53:00;35.1;;;21.0;;
69404;SDS011;57084;52.046;5.632;2022-12-18T00:54:00;35.1;;;21.0;;
69404;SDS011;57084;52.046;5.632;2022-12-18T00:55:00;35.1;;;21.0;;
69404;SDS011;57084;52.046;5.632;2022-12-18T00:56:00;35.1;;;21.0;;
69404;SDS011;57084;52.046;5.632;2022-12-18T00:57:00;35.1;;;21.0;;
69404;SDS011;57084;52.046;5.632;2022-12-18T00:58:00;33.4;;;20.3;;
69404;SDS011;57084;52.046;5.632;2022-12-18T00:59:00;33.4;;;20.3;;
69404;SDS011;57084;52.046;5.632;2022-12-18T01:00:00;33.4;;;20.3;;
69404;SDS011;57084;52.046;5.632;2022-12-18T01:01:00;33.4;;;20.3;;
69404;SDS011;57084;52.046;5.632;2022-12-18T01:02:00;33.4;;;20.3;;
69404;SDS011;57084;52.046;5.632;2022-12-18T01:03:00;31.9;;;20.5;;
69404;SDS011;57084;52.046;5.632;2022-12-18T01:04:01;31.9;;;20.5;;
69404;SDS011;57084;52.046;5.632;2022-12-18T01:05:00;31.9;;;20.5;;
69404;SDS011;57084;52.046;5.632;2022-12-18T01:06:05;31.9;;;20.5;;
69404;SDS011;57084;52.046;5.632;2022-12-18T01:07:00;31.9;;;20.5;;
69404;SDS011;57084;52.046;5.632;2022-12-18T01:08:00;29.9;;;19.1;;
69404;SDS011;57084;52.046;5.632;2022-12-18T01:09:00;29.9;;;19.1;;
69404;SDS011;57084;52.046;5.632;2022-12-18T01:10:00;29.9;;;19.1;;
69404;SDS011;57084;52.046;5.632;2022-12-18T01:11:00;29.9;;;19.1;;
69404;SDS011;57084;52.046;5.632;2022-12-18T01:12:00;29.9;;;19.1;;
69404;SDS011;57084;52.046;5.632;2022-12-18T01:13:00;32.2;;;19.0;;
69404;SDS011;57084;52.046;5.632;2022-12-18T01:14:00;32.2;;;19.0;;
69404;SDS011;57084;52.046;5.632;2022-12-18T01:15:00;32.2;;;19.0;;
69404;SDS011;57084;52.046;5.632;2022-12-18T01:16:00;32.2;;;19.0;;
69404;SDS011;57084;52.046;5.632;2022-12-18T01:17:00;32.2;;;19.0;;
69404;SDS011;57084;52.046;5.632;2022-12-18T01:18:00;30.3;;;19.9;;
69404;SDS011;57084;52.046;5.632;2022-12-18T01:19:00;30.3;;;19.9;;
69404;SDS011;57084;52.046;5.632;2022-12-18T01:20:00;30.3;;;19.9;;
69404;SDS011;57084;52.046;5.632;2022-12-18T01:21:00;30.3;;;19.9;;
69404;SDS011;57084;52.046;5.632;2022-12-18T01:22:00;30.3;;;19.9;;
69404;SDS011;57084;52.046;5.632;2022-12-18T01:23:00;27.1;;;18.5;;
69404;SDS011;57084;52.046;5.632;2022-12-18T01:24:00;27.1;;;18.5;;
69404;SDS011;57084;52.046;5.632;2022-12-18T01:25:00;27.1;;;18.5;;
69404;SDS011;57084;52.046;5.632;2022-12-18T01:26:04;27.1;;;18.5;;
69404;SDS011;57084;52.046;5.632;2022-12-18T01:27:00;27.1;;;18.5;;
69404;SDS011;57084;52.046;5.632;2022-12-18T01:28:00;28.1;;;18.7;;
69404;SDS011;57084;52.046;5.632;2022-12-18T01:29:00;28.1;;;18.7;;
69404;SDS011;57084;52.046;5.632;2022-12-18T01:30:00;28.1;;;18.7;;
69404;SDS011;57084;52.046;5.632;2022-12-18T01:31:10;28.1;;;18.7;;
69404;SDS011;57084;52.046;5.632;2022-12-18T01:32:00;28.1;;;18.7;;
69404;SDS011;57084;52.046;5.632;2022-12-18T01:33:00;26.6;;;18.2;;
69404;SDS011;57084;52.046;5.632;2022-12-18T01:34:01;26.6;;;18.2;;
69404;SDS011;57084;52.046;5.632;2022-12-18T01:35:00;26.6;;;18.2;;
69404;SDS011;57084;52.046;5.632;2022-12-18T01:36:00;26.6;;;18.2;;
69404;SDS011;57084;52.046;5.632;2022-12-18T01:37:02;26.6;;;18.2;;
69404;SDS011;57084;52.046;5.632;2022-12-18T01:38:00;26.1;;;17.4;;
69404;SDS011;57084;52.046;5.632;2022-12-18T01:39:01;26.1;;;17.4;;
69404;SDS011;57084;52.046;5.632;2022-12-18T01:40:00;26.1;;;17.4;;
69404;SDS011;57084;52.046;5.632;2022-12-18T01:41:00;26.1;;;17.4;;
69404;SDS011;57084;52.046;5.632;2022-12-18T01:42:01;26.1;;;17.4;;
69404;SDS011;57084;52.046;5.632;2022-12-18T01:43:00;27.7;;;18.8;;
69404;SDS011;57084;52.046;5.632;2022-12-18T01:44:00;27.7;;;18.8;;
69404;SDS011;57084;52.046;5.632;2022-12-18T01:45:04;27.7;;;18.8;;
69404;SDS011;57084;52.046;5.632;2022-12-18T01:46:00;27.7;;;18.8;;
69404;SDS011;57084;52.046;5.632;2022-12-18T01:47:00;27.7;;;18.8;;
69404;SDS011;57084;52.046;5.632;2022-12-18T01:48:04;27.8;;;17.8;;
69404;SDS011;57084;52.046;5.632;2022-12-18T01:49:01;27.8;;;17.8;;
69404;SDS011;57084;52.046;5.632;2022-12-18T01:50:04;27.8;;;17.8;;
69404;SDS011;57084;52.046;5.632;2022-12-18T01:51:01;27.8;;;17.8;;
69404;SDS011;57084;52.046;5.632;2022-12-18T01:52:00;27.8;;;17.8;;
69404;SDS011;57084;52.046;5.632;2022-12-18T01:53:04;27.9;;;18.5;;
69404;SDS011;57084;52.046;5.632;2022-12-18T01:54:00;27.9;;;18.5;;
69404;SDS011;57084;52.046;5.632;2022-12-18T01:55:02;27.9;;;18.5;;
69404;SDS011;57084;52.046;5.632;2022-12-18T01:56:00;27.9;;;18.5;;
69404;SDS011;57084;52.046;5.632;2022-12-18T01:57:00;27.9;;;18.5;;
69404;SDS011;57084;52.046;5.632;2022-12-18T01:58:00;26.6;;;17.7;;
69404;SDS011;57084;52.046;5.632;2022-12-18T01:59:03;26.6;;;17.7;;
69404;SDS011;57084;52.046;5.632;2022-12-18T02:00:06;26.6;;;17.7;;
69404;SDS011;57084;52.046;5.632;2022-12-18T02:01:00;26.6;;;17.7;;
69404;SDS011;57084;52.046;5.632;2022-12-18T02:02:01;26.6;;;17.7;;
69404;SDS011;57084;52.046;5.632;2022-12-18T02:03:00;29.3;;;18.0;;
69404;SDS011;57084;52.046;5.632;2022-12-18T02:04:17;29.3;;;18.0;;
69404;SDS011;57084;52.046;5.632;2022-12-18T02:05:00;29.3;;;18.0;;
69404;SDS011;57084;52.046;5.632;2022-12-18T02:06:06;29.3;;;18.0;;
69404;SDS011;57084;52.046;5.632;2022-12-18T02:07:07;29.3;;;18.0;;
69404;SDS011;57084;52.046;5.632;2022-12-18T02:08:08;23.1;;;17.1;;
69404;SDS011;57084;52.046;5.632;2022-12-18T02:09:07;23.1;;;17.1;;
69404;SDS011;57084;52.046;5.632;2022-12-18T02:10:06;23.1;;;17.1;;
69404;SDS011;57084;52.046;5.632;2022-12-18T02:11:05;23.1;;;17.1;;
69404;SDS011;57084;52.046;5.632;2022-12-18T02:12:05;23.1;;;17.1;;
69404;SDS011;57084;52.046;5.632;2022-12-18T02:13:08;24.7;;;16.7;;
69404;SDS011;57084;52.046;5.632;2022-12-18T02:14:07;24.7;;;16.7;;
69404;SDS011;57084;52.046;5.632;2022-12-18T02:15:05;24.7;;;16.7;;
69404;SDS011;57084;52.046;5.632;2022-12-18T02:16:07;24.7;;;16.7;;
69404;SDS011;57084;52.046;5.632;2022-12-18T02:17:03;24.7;;;16.7;;
69404;SDS011;57084;52.046;5.632;2022-12-18T02:18:05;24.1;;;17.5;;
69404;SDS011;57084;52.046;5.632;2022-12-18T02:19:04;24.1;;;17.5;;
69404;SDS011;57084;52.046;5.632;2022-12-18T02:20:05;24.1;;;17.5;;
69404;SDS011;57084;52.046;5.632;2022-12-18T02:21:08;24.1;;;17.5;;
69404;SDS011;57084;52.046;5.632;2022-12-18T02:22:14;24.1;;;17.5;;
69404;SDS011;57084;52.046;5.632;2022-12-18T02:23:07;27.4;;;16.1;;
69404;SDS011;57084;52.046;5.632;2022-12-18T02:24:14;27.4;;;16.1;;
69404;SDS011;57084;52.046;5.632;2022-12-18T02:25:09;27.4;;;16.1;;
69404;SDS011;57084;52.046;5.632;2022-12-18T02:26:10;27.4;;;16.1;;
69404;SDS011;57084;52.046;5.632;2022-12-18T02:27:04;27.4;;;16.1;;
69404;SDS011;57084;52.046;5.632;2022-12-18T02:28:01;23.2;;;16.1;;
69404;SDS011;57084;52.046;5.632;2022-12-18T02:29:04;23.2;;;16.1;;
69404;SDS011;57084;52.046;5.632;2022-12-18T02:30:01;23.2;;;16.1;;
69404;SDS011;57084;52.046;5.632;2022-12-18T02:31:02;23.2;;;16.1;;
69404;SDS011;57084;52.046;5.632;2022-12-18T02:32:02;23.2;;;16.1;;
69404;SDS011;57084;52.046;5.632;2022-12-18T02:33:01;22.8;;;16.1;;
69404;SDS011;57084;52.046;5.632;2022-12-18T02:34:03;22.8;;;16.1;;
69404;SDS011;57084;52.046;5.632;2022-12-18T02:35:02;22.8;;;16.1;;
69404;SDS011;57084;52.046;5.632;2022-12-18T02:36:01;22.8;;;16.1;;
69404;SDS011;57084;52.046;5.632;2022-12-18T02:37:02;22.8;;;16.1;;
69404;SDS011;57084;52.046;5.632;2022-12-18T02:38:01;22.8;;;16.1;;
69404;SDS011;57084;52.046;5.632;2022-12-18T02:39:01;20.5;;;14.4;;
69404;SDS011;57084;52.046;5.632;2022-12-18T02:40:02;20.5;;;14.4;;
69404;SDS011;57084;52.046;5.632;2022-12-18T02:41:01;20.5;;;14.4;;
69404;SDS011;57084;52.046;5.632;2022-12-18T02:42:01;20.5;;;14.4;;
69404;SDS011;57084;52.046;5.632;2022-12-18T02:43:03;20.5;;;14.4;;
69404;SDS011;57084;52.046;5.632;2022-12-18T02:44:02;21.2;;;15.5;;
69404;SDS011;57084;52.046;5.632;2022-12-18T02:45:00;21.2;;;15.5;;
69404;SDS011;57084;52.046;5.632;2022-12-18T02:46:22;21.2;;;15.5;;
69404;SDS011;57084;52.046;5.632;2022-12-18T02:47:00;21.2;;;15.5;;
69404;SDS011;57084;52.046;5.632;2022-12-18T02:48:00;21.2;;;15.5;;
69404;SDS011;57084;52.046;5.632;2022-12-18T02:49:08;19.9;;;14.3;;
69404;SDS011;57084;52.046;5.632;2022-12-18T02:50:07;19.9;;;14.3;;
69404;SDS011;57084;52.046;5.632;2022-12-18T02:51:06;19.9;;;14.3;;
69404;SDS011;57084;52.046;5.632;2022-12-18T02:52:07;19.9;;;14.3;;
69404;SDS011;57084;52.046;5.632;2022-12-18T02:53:06;19.9;;;14.3;;
69404;SDS011;57084;52.046;5.632;2022-12-18T02:54:05;21.3;;;15.4;;
69404;SDS011;57084;52.046;5.632;2022-12-18T02:55:08;21.3;;;15.4;;
69404;SDS011;57084;52.046;5.632;2022-12-18T02:56:05;21.3;;;15.4;;
69404;SDS011;57084;52.046;5.632;2022-12-18T02:57:07;21.3;;;15.4;;
69404;SDS011;57084;52.046;5.632;2022-12-18T02:58:04;21.3;;;15.4;;
69404;SDS011;57084;52.046;5.632;2022-12-18T02:59:04;23.3;;;14.6;;
69404;SDS011;57084;52.046;5.632;2022-12-18T03:00:04;23.3;;;14.6;;
69404;SDS011;57084;52.046;5.632;2022-12-18T03:01:03;23.3;;;14.6;;
69404;SDS011;57084;52.046;5.632;2022-12-18T03:02:05;23.3;;;14.6;;
69404;SDS011;57084;52.046;5.632;2022-12-18T03:03:05;23.3;;;14.6;;
69404;SDS011;57084;52.046;5.632;2022-12-18T03:04:04;25.7;;;15.2;;
69404;SDS011;57084;52.046;5.632;2022-12-18T03:05:05;25.7;;;15.2;;
69404;SDS011;57084;52.046;5.632;2022-12-18T03:06:04;25.7;;;15.2;;
69404;SDS011;57084;52.046;5.632;2022-12-18T03:07:03;25.7;;;15.2;;
69404;SDS011;57084;52.046;5.632;2022-12-18T03:08:05;25.7;;;15.2;;
69404;SDS011;57084;52.046;5.632;2022-12-18T03:09:02;24.2;;;14.9;;
69404;SDS011;57084;52.046;5.632;2022-12-18T03:10:00;24.2;;;14.9;;
69404;SDS011;57084;52.046;5.632;2022-12-18T03:11:04;24.2;;;14.9;;
69404;SDS011;57084;52.046;5.632;2022-12-18T03:12:05;24.2;;;14.9;;
69404;SDS011;57084;52.046;5.632;2022-12-18T03:13:04;24.2;;;14.9;;
69404;SDS011;57084;52.046;5.632;2022-12-18T03:14:00;19.7;;;14.3;;
69404;SDS011;57084;52.046;5.632;2022-12-18T03:15:03;19.7;;;14.3;;
69404;SDS011;57084;52.046;5.632;2022-12-18T03:16:01;19.7;;;14.3;;
69404;SDS011;57084;52.046;5.632;2022-12-18T03:17:02;19.7;;;14.3;;
69404;SDS011;57084;52.046;5.632;2022-12-18T03:18:04;19.7;;;14.3;;
69404;SDS011;57084;52.046;5.632;2022-12-18T03:19:01;19.9;;;15.2;;
69404;SDS011;57084;52.046;5.632;2022-12-18T03:20:03;19.9;;;15.2;;
69404;SDS011;57084;52.046;5.632;2022-12-18T03:21:02;19.9;;;15.2;;
69404;SDS011;57084;52.046;5.632;2022-12-18T03:22:03;19.9;;;15.2;;
69404;SDS011;57084;52.046;5.632;2022-12-18T03:23:04;19.9;;;15.2;;
69404;SDS011;57084;52.046;5.632;2022-12-18T03:24:01;22.9;;;15.5;;
69404;SDS011;57084;52.046;5.632;2022-12-18T03:25:04;22.9;;;15.5;;
69404;SDS011;57084;52.046;5.632;2022-12-18T03:26:03;22.9;;;15.5;;
69404;SDS011;57084;52.046;5.632;2022-12-18T03:27:02;22.9;;;15.5;;
69404;SDS011;57084;52.046;5.632;2022-12-18T03:28:02;22.9;;;15.5;;
69404;SDS011;57084;52.046;5.632;2022-12-18T03:29:04;16.9;;;14.0;;
69404;SDS011;57084;52.046;5.632;2022-12-18T03:30:03;16.9;;;14.0;;
69404;SDS011;57084;52.046;5.632;2022-12-18T03:31:01;16.9;;;14.0;;
69404;SDS011;57084;52.046;5.632;2022-12-18T03:32:04;16.9;;;14.0;;
69404;SDS011;57084;52.046;5.632;2022-12-18T03:33:05;16.9;;;14.0;;
69404;SDS011;57084;52.046;5.632;2022-12-18T03:34:03;19.9;;;14.1;;
69404;SDS011;57084;52.046;5.632;2022-12-18T03:35:03;19.9;;;14.1;;
69404;SDS011;57084;52.046;5.632;2022-12-18T03:36:00;19.9;;;14.1;;
69404;SDS011;57084;52.046;5.632;2022-12-18T03:37:02;19.9;;;14.1;;
69404;SDS011;57084;52.046;5.632;2022-12-18T03:38:00;19.9;;;14.1;;
69404;SDS011;57084;52.046;5.632;2022-12-18T03:39:01;18.3;;;14.3;;
69404;SDS011;57084;52.046;5.632;2022-12-18T03:40:00;18.3;;;14.3;;
69404;SDS011;57084;52.046;5.632;2022-12-18T03:41:06;18.3;;;14.3;;
69404;SDS011;57084;52.046;5.632;2022-12-18T03:42:05;18.3;;;14.3;;
69404;SDS011;57084;52.046;5.632;2022-12-18T03:43:05;18.3;;;14.3;;
69404;SDS011;57084;52.046;5.632;2022-12-18T03:44:07;21.0;;;14.1;;
69404;SDS011;57084;52.046;5.632;2022-12-18T03:45:06;21.0;;;14.1;;
69404;SDS011;57084;52.046;5.632;2022-12-18T03:46:04;21.0;;;14.1;;
69404;SDS011;57084;52.046;5.632;2022-12-18T03:47:06;21.0;;;14.1;;
69404;SDS011;57084;52.046;5.632;2022-12-18T03:48:04;21.0;;;14.1;;
69404;SDS011;57084;52.046;5.632;2022-12-18T03:49:08;18.3;;;13.9;;
69404;SDS011;57084;52.046;5.632;2022-12-18T03:50:06;18.3;;;13.9;;
69404;SDS011;57084;52.046;5.632;2022-12-18T03:51:05;18.3;;;13.9;;
69404;SDS011;57084;52.046;5.632;2022-12-18T03:52:03;18.3;;;13.9;;
69404;SDS011;57084;52.046;5.632;2022-12-18T03:53:09;18.3;;;13.9;;
69404;SDS011;57084;52.046;5.632;2022-12-18T03:54:03;19.7;;;13.3;;
69404;SDS011;57084;52.046;5.632;2022-12-18T03:55:02;19.7;;;13.3;;
69404;SDS011;57084;52.046;5.632;2022-12-18T03:56:00;19.7;;;13.3;;
69404;SDS011;57084;52.046;5.632;2022-12-18T03:57:04;19.7;;;13.3;;
69404;SDS011;57084;52.046;5.632;2022-12-18T03:58:01;19.7;;;13.3;;
69404;SDS011;57084;52.046;5.632;2022-12-18T03:59:02;19.3;;;12.8;;
69404;SDS011;57084;52.046;5.632;2022-12-18T04:00:04;19.3;;;12.8;;
69404;SDS011;57084;52.046;5.632;2022-12-18T04:01:03;19.3;;;12.8;;
69404;SDS011;57084;52.046;5.632;2022-12-18T04:02:01;19.3;;;12.8;;
69404;SDS011;57084;52.046;5.632;2022-12-18T04:03:01;19.3;;;12.8;;
69404;SDS011;57084;52.046;5.632;2022-12-18T04:04:01;18.8;;;12.8;;
69404;SDS011;57084;52.046;5.632;2022-12-18T04:05:03;18.8;;;12.8;;
69404;SDS011;57084;52.046;5.632;2022-12-18T04:06:01;18.8;;;12.8;;
69404;SDS011;57084;52.046;5.632;2022-12-18T04:07:01;18.8;;;12.8;;
69404;SDS011;57084;52.046;5.632;2022-12-18T04:08:00;18.8;;;12.8;;
69404;SDS011;57084;52.046;5.632;2022-12-18T04:09:00;18.1;;;12.9;;
69404;SDS011;57084;52.046;5.632;2022-12-18T04:10:02;18.1;;;12.9;;
69404;SDS011;57084;52.046;5.632;2022-12-18T04:11:00;18.1;;;12.9;;
69404;SDS011;57084;52.046;5.632;2022-12-18T04:12:00;18.1;;;12.9;;
69404;SDS011;57084;52.046;5.632;2022-12-18T04:13:00;18.1;;;12.9;;
69404;SDS011;57084;52.046;5.632;2022-12-18T04:14:00;18.8;;;11.6;;
69404;SDS011;57084;52.046;5.632;2022-12-18T04:15:00;18.8;;;11.6;;
69404;SDS011;57084;52.046;5.632;2022-12-18T04:16:00;18.8;;;11.6;;
69404;SDS011;57084;52.046;5.632;2022-12-18T04:17:00;18.8;;;11.6;;
69404;SDS011;57084;52.046;5.632;2022-12-18T04:18:00;18.8;;;11.6;;
69404;SDS011;57084;52.046;5.632;2022-12-18T04:19:00;16.1;;;12.4;;
69404;SDS011;57084;52.046;5.632;2022-12-18T04:20:00;16.1;;;12.4;;
69404;SDS011;57084;52.046;5.632;2022-12-18T04:21:00;16.1;;;12.4;;
69404;SDS011;57084;52.046;5.632;2022-12-18T04:22:00;16.1;;;12.4;;
69404;SDS011;57084;52.046;5.632;2022-12-18T04:23:00;16.1;;;12.4;;
69404;SDS011;57084;52.046;5.632;2022-12-18T04:24:00;18.3;;;12.1;;
69404;SDS011;57084;52.046;5.632;2022-12-18T04:25:00;18.3;;;12.1;;
69404;SDS011;57084;52.046;5.632;2022-12-18T04:26:00;18.3;;;12.1;;
69404;SDS011;57084;52.046;5.632;2022-12-18T04:27:00;18.3;;;12.1;;
69404;SDS011;57084;52.046;5.632;2022-12-18T04:28:00;18.3;;;12.1;;
69404;SDS011;57084;52.046;5.632;2022-12-18T04:29:00;18.3;;;12.1;;
69404;SDS011;57084;52.046;5.632;2022-12-18T04:30:00;21.3;;;13.6;;
69404;SDS011;57084;52.046;5.632;2022-12-18T04:31:00;21.3;;;13.6;;
69404;SDS011;57084;52.046;5.632;2022-12-18T04:32:00;21.3;;;13.6;;
69404;SDS011;57084;52.046;5.632;2022-12-18T04:33:00;21.3;;;13.6;;
69404;SDS011;57084;52.046;5.632;2022-12-18T04:34:00;21.3;;;13.6;;
69404;SDS011;57084;52.046;5.632;2022-12-18T04:35:00;20.3;;;11.6;;
69404;SDS011;57084;52.046;5.632;2022-12-18T04:36:00;20.3;;;11.6;;
69404;SDS011;57084;52.046;5.632;2022-12-18T04:37:00;20.3;;;11.6;;
69404;SDS011;57084;52.046;5.632;2022-12-18T04:38:00;20.3;;;11.6;;
69404;SDS011;57084;52.046;5.632;2022-12-18T04:39:00;20.3;;;11.6;;
69404;SDS011;57084;52.046;5.632;2022-12-18T04:40:00;18.5;;;13.0;;
69404;SDS011;57084;52.046;5.632;2022-12-18T04:41:00;18.5;;;13.0;;
69404;SDS011;57084;52.046;5.632;2022-12-18T04:42:00;18.5;;;13.0;;
69404;SDS011;57084;52.046;5.632;2022-12-18T04:43:00;18.5;;;13.0;;
69404;SDS011;57084;52.046;5.632;2022-12-18T04:44:00;18.5;;;13.0;;
69404;SDS011;57084;52.046;5.632;2022-12-18T04:45:00;16.0;;;11.5;;
69404;SDS011;57084;52.046;5.632;2022-12-18T04:46:02;16.0;;;11.5;;
69404;SDS011;57084;52.046;5.632;2022-12-18T04:47:00;16.0;;;11.5;;
69404;SDS011;57084;52.046;5.632;2022-12-18T04:48:01;16.0;;;11.5;;
69404;SDS011;57084;52.046;5.632;2022-12-18T04:49:00;16.0;;;11.5;;
69404;SDS011;57084;52.046;5.632;2022-12-18T04:50:00;14.8;;;10.9;;
69404;SDS011;57084;52.046;5.632;2022-12-18T04:51:00;14.8;;;10.9;;
69404;SDS011;57084;52.046;5.632;2022-12-18T04:52:00;14.8;;;10.9;;
69404;SDS011;57084;52.046;5.632;2022-12-18T04:53:00;14.8;;;10.9;;
69404;SDS011;57084;52.046;5.632;2022-12-18T04:54:00;14.8;;;10.9;;
69404;SDS011;57084;52.046;5.632;2022-12-18T04:55:00;17.8;;;11.0;;
69404;SDS011;57084;52.046;5.632;2022-12-18T04:56:03;17.8;;;11.0;;
69404;SDS011;57084;52.046;5.632;2022-12-18T04:57:00;17.8;;;11.0;;
69404;SDS011;57084;52.046;5.632;2022-12-18T04:58:00;17.8;;;11.0;;
69404;SDS011;57084;52.046;5.632;2022-12-18T04:59:00;17.8;;;11.0;;
69404;SDS011;57084;52.046;5.632;2022-12-18T05:00:00;17.4;;;11.1;;
69404;SDS011;57084;52.046;5.632;2022-12-18T05:01:00;17.4;;;11.1;;
69404;SDS011;57084;52.046;5.632;2022-12-18T05:02:00;17.4;;;11.1;;
69404;SDS011;57084;52.046;5.632;2022-12-18T05:03:00;17.4;;;11.1;;
69404;SDS011;57084;52.046;5.632;2022-12-18T05:04:00;17.4;;;11.1;;
69404;SDS011;57084;52.046;5.632;2022-12-18T05:05:00;15.2;;;11.6;;
69404;SDS011;57084;52.046;5.632;2022-12-18T05:06:00;15.2;;;11.6;;
69404;SDS011;57084;52.046;5.632;2022-12-18T05:07:00;15.2;;;11.6;;
69404;SDS011;57084;52.046;5.632;2022-12-18T05:08:00;15.2;;;11.6;;
69404;SDS011;57084;52.046;5.632;2022-12-18T05:09:00;15.2;;;11.6;;
69404;SDS011;57084;52.046;5.632;2022-12-18T05:10:00;18.1;;;12.0;;
69404;SDS011;57084;52.046;5.632;2022-12-18T05:11:00;18.1;;;12.0;;
69404;SDS011;57084;52.046;5.632;2022-12-18T05:12:00;18.1;;;12.0;;
69404;SDS011;57084;52.046;5.632;2022-12-18T05:13:00;18.1;;;12.0;;
69404;SDS011;57084;52.046;5.632;2022-12-18T05:14:00;18.1;;;12.0;;
69404;SDS011;57084;52.046;5.632;2022-12-18T05:15:00;14.3;;;10.9;;
69404;SDS011;57084;52.046;5.632;2022-12-18T05:16:00;14.3;;;10.9;;
69404;SDS011;57084;52.046;5.632;2022-12-18T05:17:00;14.3;;;10.9;;
69404;SDS011;57084;52.046;5.632;2022-12-18T05:18:00;14.3;;;10.9;;
69404;SDS011;57084;52.046;5.632;2022-12-18T05:19:00;14.3;;;10.9;;
69404;SDS011;57084;52.046;5.632;2022-12-18T05:20:00;13.8;;;10.9;;
69404;SDS011;57084;52.046;5.632;2022-12-18T05:21:00;13.8;;;10.9;;
69404;SDS011;57084;52.046;5.632;2022-12-18T05:22:00;13.8;;;10.9;;
69404;SDS011;57084;52.046;5.632;2022-12-18T05:23:00;13.8;;;10.9;;
69404;SDS011;57084;52.046;5.632;2022-12-18T05:24:00;13.8;;;10.9;;
69404;SDS011;57084;52.046;5.632;2022-12-18T05:25:00;17.9;;;11.5;;
69404;SDS011;57084;52.046;5.632;2022-12-18T05:26:02;17.9;;;11.5;;
69404;SDS011;57084;52.046;5.632;2022-12-18T05:27:00;17.9;;;11.5;;
69404;SDS011;57084;52.046;5.632;2022-12-18T05:28:00;17.9;;;11.5;;
69404;SDS011;57084;52.046;5.632;2022-12-18T05:29:00;17.9;;;11.5;;
69404;SDS011;57084;52.046;5.632;2022-12-18T05:30:00;14.5;;;10.5;;
69404;SDS011;57084;52.046;5.632;2022-12-18T05:31:02;14.5;;;10.5;;
69404;SDS011;57084;52.046;5.632;2022-12-18T05:32:00;14.5;;;10.5;;
69404;SDS011;57084;52.046;5.632;2022-12-18T05:33:00;14.5;;;10.5;;
69404;SDS011;57084;52.046;5.632;2022-12-18T05:34:00;14.5;;;10.5;;
69404;SDS011;57084;52.046;5.632;2022-12-18T05:35:00;14.7;;;10.8;;
69404;SDS011;57084;52.046;5.632;2022-12-18T05:36:01;14.7;;;10.8;;
69404;SDS011;57084;52.046;5.632;2022-12-18T05:37:00;14.7;;;10.8;;
69404;SDS011;57084;52.046;5.632;2022-12-18T05:38:00;14.7;;;10.8;;
69404;SDS011;57084;52.046;5.632;2022-12-18T05:39:00;14.7;;;10.8;;
69404;SDS011;57084;52.046;5.632;2022-12-18T05:40:00;15.7;;;10.4;;
69404;SDS011;57084;52.046;5.632;2022-12-18T05:41:00;15.7;;;10.4;;
69404;SDS011;57084;52.046;5.632;2022-12-18T05:42:00;15.7;;;10.4;;
69404;SDS011;57084;52.046;5.632;2022-12-18T05:43:00;15.7;;;10.4;;
69404;SDS011;57084;52.046;5.632;2022-12-18T05:44:00;15.7;;;10.4;;
69404;SDS011;57084;52.046;5.632;2022-12-18T05:45:00;14.8;;;10.9;;
69404;SDS011;57084;52.046;5.632;2022-12-18T05:46:03;14.8;;;10.9;;
69404;SDS011;57084;52.046;5.632;2022-12-18T05:47:00;14.8;;;10.9;;
69404;SDS011;57084;52.046;5.632;2022-12-18T05:48:00;14.8;;;10.9;;
69404;SDS011;57084;52.046;5.632;2022-12-18T05:49:00;14.8;;;10.9;;
69404;SDS011;57084;52.046;5.632;2022-12-18T05:50:00;15.7;;;9.6;;
69404;SDS011;57084;52.046;5.632;2022-12-18T05:51:05;15.7;;;9.6;;
69404;SDS011;57084;52.046;5.632;2022-12-18T05:52:00;15.7;;;9.6;;
69404;SDS011;57084;52.046;5.632;2022-12-18T05:53:00;15.7;;;9.6;;
69404;SDS011;57084;52.046;5.632;2022-12-18T05:54:00;15.7;;;9.6;;
69404;SDS011;57084;52.046;5.632;2022-12-18T05:55:00;14.6;;;9.8;;
69404;SDS011;57084;52.046;5.632;2022-12-18T05:56:00;14.6;;;9.8;;
69404;SDS011;57084;52.046;5.632;2022-12-18T05:57:00;14.6;;;9.8;;
69404;SDS011;57084;52.046;5.632;2022-12-18T05:58:00;14.6;;;9.8;;
69404;SDS011;57084;52.046;5.632;2022-12-18T05:59:00;14.6;;;9.8;;
69404;SDS011;57084;52.046;5.632;2022-12-18T06:00:00;14.3;;;9.2;;
69404;SDS011;57084;52.046;5.632;2022-12-18T06:01:07;14.3;;;9.2;;